createdAt,value
2022-11-24T00:02:47.140Z,100.00
2022-11-24T00:06:48.907Z,100.00
2022-11-24T00:10:50.595Z,99.65
2022-11-24T00:14:52.392Z,99.70
2022-11-24T00:18:57.670Z,99.74
2022-11-24T00:22:59.347Z,99.91
2022-11-24T00:27:01.052Z,99.97
2022-11-24T00:31:04.631Z,100.00
2022-11-24T00:35:07.759Z,100.00
2022-11-24T00:39:14.133Z,100.00
2022-11-24T00:43:15.939Z,100.00
2022-11-24T00:47:17.669Z,100.00
2022-11-24T00:51:21.396Z,100.00
2022-11-24T00:55:23.139Z,100.00
2022-11-24T00:59:24.853Z,100.00
2022-11-24T01:03:26.533Z,100.00
2022-11-24T01:07:28.294Z,100.00
2022-11-24T01:11:51.822Z,99.92
2022-11-24T01:15:53.650Z,99.83
2022-11-24T01:19:55.305Z,99.40
2022-11-24T01:23:57.812Z,99.47
2022-11-24T01:27:59.651Z,99.17
2022-11-24T01:32:01.410Z,99.06
2022-11-24T01:36:04.178Z,99.52
2022-11-24T01:40:06.565Z,99.37
2022-11-24T01:44:25.890Z,99.04
2022-11-24T01:48:32.500Z,99.61
2022-11-24T01:52:42.772Z,99.26
2022-11-24T01:56:49.099Z,99.14
2022-11-24T02:00:51.677Z,99.32
2022-11-24T02:04:54.161Z,99.37
2022-11-24T02:09:01.281Z,99.09
2022-11-24T02:13:04.330Z,99.29
2022-11-24T02:17:06.011Z,99.25
2022-11-24T02:21:08.393Z,99.37
2022-11-24T02:25:28.047Z,98.86
2022-11-24T02:29:29.818Z,98.99
2022-11-24T02:33:33.474Z,98.66
2022-11-24T02:37:35.436Z,98.82
2022-11-24T02:41:38.123Z,99.13
2022-11-24T02:45:40.133Z,98.57
2022-11-24T02:49:42.295Z,98.86
2022-11-24T02:53:44.075Z,98.40
2022-11-24T02:57:46.226Z,98.71
2022-11-24T03:01:48.108Z,98.71
2022-11-24T03:05:50.285Z,98.81
2022-11-24T03:09:51.922Z,98.53
2022-11-24T03:13:53.819Z,98.63
2022-11-24T03:17:56.883Z,98.24
2022-11-24T03:21:58.998Z,97.88
2022-11-24T03:26:18.783Z,98.02
2022-11-24T03:30:20.555Z,97.61
2022-11-24T03:34:22.324Z,97.30
2022-11-24T03:38:23.984Z,96.48
2022-11-24T03:42:25.646Z,96.40
2022-11-24T03:46:27.406Z,96.04
2022-11-24T03:50:29.325Z,96.02
2022-11-24T03:54:31.267Z,95.73
2022-11-24T03:58:33.309Z,95.54
2022-11-24T04:02:35.078Z,95.89
2022-11-24T04:06:36.799Z,95.88
2022-11-24T04:10:39.512Z,95.65
2022-11-24T04:14:41.247Z,96.01
2022-11-24T04:18:43.544Z,96.07
2022-11-24T04:22:45.306Z,96.25
2022-11-24T04:26:47.097Z,95.82
2022-11-24T04:30:48.795Z,96.10
2022-11-24T04:34:50.506Z,96.09
2022-11-24T04:39:25.723Z,96.61
2022-11-24T04:43:18.511Z,96.33
2022-11-24T04:47:22.090Z,96.38
2022-11-24T04:51:24.020Z,96.01
2022-11-24T04:55:25.725Z,96.14
2022-11-24T04:59:27.548Z,96.04
2022-11-24T05:03:29.231Z,96.21
2022-11-24T05:07:31.066Z,96.41
2022-11-24T05:11:32.807Z,96.45
2022-11-24T05:15:35.326Z,96.68
2022-11-24T05:19:37.058Z,96.70
2022-11-24T05:23:38.999Z,96.58
2022-11-24T05:27:40.896Z,97.17
2022-11-24T05:31:42.760Z,96.91
2022-11-24T05:35:45.544Z,97.03
2022-11-24T05:39:47.265Z,97.04
2022-11-24T05:43:48.959Z,97.10
2022-11-24T05:47:51.599Z,97.02
2022-11-24T05:51:53.341Z,97.17
2022-11-24T05:55:55.052Z,96.80
2022-11-24T05:59:56.764Z,97.01
2022-11-24T06:03:58.434Z,96.85
2022-11-24T06:08:00.874Z,96.88
2022-11-24T06:12:02.640Z,97.21
2022-11-24T06:16:04.597Z,97.28
2022-11-24T06:20:07.684Z,97.76
2022-11-24T06:24:09.409Z,97.67
2022-11-24T06:28:11.073Z,97.54
2022-11-24T06:32:12.809Z,98.18
2022-11-24T06:36:15.339Z,97.84
2022-11-24T06:40:17.243Z,98.25
2022-11-24T06:44:19.358Z,98.58
2022-11-24T06:48:21.126Z,98.43
2022-11-24T06:52:22.822Z,98.86
2022-11-24T06:56:24.554Z,98.67
2022-11-24T07:00:26.361Z,99.29
2022-11-24T07:04:28.047Z,99.25
2022-11-24T07:08:29.751Z,99.63
2022-11-24T07:12:35.371Z,99.79
2022-11-24T07:16:37.248Z,99.58
2022-11-24T07:20:39.175Z,99.83
2022-11-24T07:24:41.489Z,99.98
2022-11-24T07:28:43.176Z,100.00
2022-11-24T07:32:44.866Z,99.94
2022-11-24T07:36:46.544Z,100.00
2022-11-24T07:40:48.322Z,100.00
2022-11-24T07:44:50.011Z,100.00
2022-11-24T07:48:51.927Z,100.00
2022-11-24T07:52:53.713Z,100.00
2022-11-24T07:56:55.649Z,100.00
2022-11-24T08:00:58.182Z,100.00
2022-11-24T08:04:59.987Z,100.00
2022-11-24T08:09:02.085Z,100.00
2022-11-24T08:13:03.816Z,100.00
2022-11-24T08:17:05.644Z,100.00
2022-11-24T08:21:08.733Z,100.00
2022-11-24T08:25:11.049Z,100.00
2022-11-24T08:29:12.776Z,100.00
2022-11-24T08:33:14.590Z,100.00
2022-11-24T08:37:16.428Z,100.00
2022-11-24T08:41:18.203Z,100.00
2022-11-24T08:45:21.655Z,100.00
2022-11-24T08:49:24.793Z,100.00
2022-11-24T08:53:26.612Z,100.00
2022-11-24T08:57:28.537Z,100.00
2022-11-24T09:01:30.349Z,100.00
2022-11-24T09:09:54.026Z,100.00
2022-11-24T09:13:55.902Z,100.00
2022-11-24T09:17:57.695Z,100.00
2022-11-24T09:21:59.426Z,100.00
2022-11-24T09:26:06.203Z,100.00
2022-11-24T09:30:08.764Z,100.00
2022-11-24T09:34:15.226Z,100.00
2022-11-24T09:38:16.926Z,100.00
2022-11-24T09:42:53.836Z,100.00
2022-11-24T09:47:13.608Z,100.00
2022-11-24T09:51:16.167Z,100.00
2022-11-24T09:55:27.458Z,100.00
2022-11-24T09:59:29.233Z,100.00
2022-11-24T10:03:42.003Z,100.00
2022-11-24T10:07:56.795Z,100.00
2022-11-24T10:12:05.215Z,100.00
2022-11-24T10:16:24.667Z,100.00
2022-11-24T10:20:49.726Z,100.00
2022-11-24T10:25:04.164Z,100.00
2022-11-24T10:29:34.782Z,99.83
2022-11-24T10:33:36.918Z,100.00
2022-11-24T10:37:50.788Z,99.90
2022-11-24T10:42:16.449Z,99.55
2022-11-24T10:46:27.309Z,99.96
2022-11-24T10:50:33.341Z,99.97
2022-11-24T10:54:36.207Z,99.56
2022-11-24T10:58:39.120Z,99.37
2022-11-24T11:02:41.115Z,99.07
2022-11-24T11:06:43.970Z,98.97
2022-11-24T11:10:47.210Z,98.59
2022-11-24T11:14:48.964Z,98.58
2022-11-24T11:18:50.897Z,98.67
2022-11-24T11:22:56.105Z,98.34
2022-11-24T11:27:02.723Z,98.07
2022-11-24T11:31:17.135Z,97.50
2022-11-24T11:35:19.583Z,97.19
2022-11-24T11:39:25.232Z,97.45
2022-11-24T11:43:34.887Z,97.19
2022-11-24T11:47:43.434Z,96.91
2022-11-24T11:52:08.304Z,97.41
2022-11-24T11:56:25.835Z,97.06
2022-11-24T12:00:29.236Z,97.08
2022-11-24T12:04:58.861Z,96.60
2022-11-24T12:09:19.774Z,96.31
2022-11-24T12:13:50.327Z,96.65
2022-11-24T12:17:58.450Z,96.11
2022-11-24T12:22:13.856Z,95.95
2022-11-24T12:26:30.967Z,95.31
2022-11-24T12:30:45.079Z,95.32
2022-11-24T12:35:18.316Z,95.27
2022-11-24T12:39:49.218Z,95.09
2022-11-24T12:43:53.485Z,94.98
2022-11-24T12:48:21.303Z,94.73
2022-11-24T12:52:27.457Z,94.46
2022-11-24T12:56:40.728Z,94.66
2022-11-24T13:01:14.669Z,94.45
2022-11-24T13:05:41.275Z,94.38
2022-11-24T13:10:34.676Z,94.38
2022-11-24T13:14:48.181Z,94.23
2022-11-24T13:19:02.636Z,93.84
2022-11-24T13:23:08.514Z,93.76
2022-11-24T13:27:15.547Z,94.04
2022-11-24T13:31:23.033Z,94.07
2022-11-24T13:35:24.920Z,93.84
2022-11-24T13:39:50.536Z,94.14
2022-11-24T13:44:14.773Z,94.06
2022-11-24T13:48:19.832Z,93.79
2022-11-24T13:52:40.123Z,93.67
2022-11-24T13:56:41.908Z,93.84
2022-11-24T14:01:21.422Z,93.65
2022-11-24T14:05:33.590Z,93.87
2022-11-24T14:09:51.214Z,93.35
2022-11-24T14:13:56.044Z,93.88
2022-11-24T14:17:58.024Z,93.95
2022-11-24T14:21:59.767Z,93.99
2022-11-24T14:26:01.475Z,94.48
2022-11-24T14:30:15.558Z,94.13
2022-11-24T14:34:22.074Z,94.44
2022-11-24T14:38:23.834Z,93.93
2022-11-24T14:42:28.548Z,93.82
2022-11-24T14:46:30.473Z,94.01
2022-11-24T14:50:32.348Z,94.37
2022-11-24T14:54:37.649Z,94.27
2022-11-24T14:58:42.381Z,94.10
2022-11-24T15:02:52.216Z,94.23
2022-11-24T15:07:12.662Z,94.42
2022-11-24T15:11:14.859Z,94.49
2022-11-24T15:15:18.381Z,94.81
2022-11-24T15:19:20.301Z,94.73
2022-11-24T15:23:25.260Z,94.59
2022-11-24T15:27:26.909Z,94.89
2022-11-24T15:31:28.757Z,94.77
2022-11-24T15:35:32.438Z,94.88
2022-11-24T15:39:34.274Z,94.73
2022-11-24T15:43:40.976Z,94.87
2022-11-24T15:47:42.727Z,94.87
2022-11-24T15:51:46.192Z,95.14
2022-11-24T15:55:48.666Z,95.30
2022-11-24T15:59:50.684Z,95.31
2022-11-24T16:03:52.369Z,95.12
2022-11-24T16:07:54.133Z,95.06
2022-11-24T16:11:55.932Z,94.91
2022-11-24T16:15:57.666Z,95.21
2022-11-24T16:20:00.736Z,95.33
2022-11-24T16:24:02.724Z,95.03
2022-11-24T16:28:04.677Z,94.83
2022-11-24T16:32:06.479Z,94.65
2022-11-24T16:36:08.747Z,94.88
2022-11-24T16:40:11.016Z,94.67
2022-11-24T16:44:12.796Z,94.63
2022-11-24T16:48:14.555Z,94.90
2022-11-24T16:52:16.860Z,94.39
2022-11-24T16:56:19.244Z,94.60
2022-11-24T17:00:21.115Z,94.76
2022-11-24T17:04:22.854Z,94.54
2022-11-24T17:08:24.624Z,94.71
2022-11-24T17:12:27.197Z,94.73
2022-11-24T17:16:29.724Z,94.52
2022-11-24T17:20:31.757Z,94.78
2022-11-24T17:24:34.011Z,94.33
2022-11-24T17:28:36.426Z,94.80
2022-11-24T17:32:38.360Z,94.62
2022-11-24T17:36:41.602Z,94.60
2022-11-24T17:40:48.081Z,94.96
2022-11-24T17:44:49.952Z,94.66
2022-11-24T17:48:51.720Z,94.47
2022-11-24T17:52:54.383Z,94.83
2022-11-24T17:56:56.088Z,94.88
2022-11-24T18:00:58.553Z,94.68
2022-11-24T18:05:00.262Z,94.54
2022-11-24T18:09:02.094Z,94.82
2022-11-24T18:13:03.868Z,94.57
2022-11-24T18:17:05.931Z,94.33
2022-11-24T18:21:14.166Z,94.36
2022-11-24T18:25:15.932Z,94.15
2022-11-24T18:29:17.777Z,94.31
2022-11-24T18:33:20.344Z,94.16
2022-11-24T18:37:22.264Z,94.61
2022-11-24T18:41:24.195Z,94.82
2022-11-24T18:45:26.395Z,94.68
2022-11-24T18:49:28.316Z,94.45
2022-11-24T18:53:30.563Z,94.62
2022-11-24T18:57:32.356Z,94.57
2022-11-24T19:01:34.257Z,94.69
2022-11-24T19:05:36.056Z,94.34
2022-11-24T19:09:38.167Z,94.18
2022-11-24T19:13:39.989Z,93.86
2022-11-24T19:17:41.843Z,93.85
2022-11-24T19:21:44.151Z,93.59
2022-11-24T19:25:47.364Z,93.37
2022-11-24T19:29:49.195Z,93.69
2022-11-24T19:33:52.937Z,93.22
2022-11-24T19:37:55.827Z,92.96
2022-11-24T19:41:57.596Z,93.23
2022-11-24T19:46:04.552Z,93.37
2022-11-24T19:50:10.332Z,92.73
2022-11-24T19:54:15.068Z,92.55
2022-11-24T19:58:16.785Z,92.58
2022-11-24T20:02:18.664Z,92.63
2022-11-24T20:06:20.483Z,92.62
2022-11-24T20:10:22.315Z,92.45
2022-11-24T20:14:24.102Z,91.92
2022-11-24T20:18:27.207Z,91.89
2022-11-24T20:22:29.264Z,91.57
2022-11-24T20:26:35.226Z,91.34
2022-11-24T20:30:36.956Z,91.52
2022-11-24T20:34:38.719Z,91.19
2022-11-24T20:38:41.672Z,91.16
2022-11-24T20:42:43.585Z,91.13
2022-11-24T20:46:46.735Z,90.98
2022-11-24T20:50:51.278Z,91.35
2022-11-24T20:54:53.554Z,91.67
2022-11-24T20:58:55.710Z,91.65
2022-11-24T21:02:58.617Z,91.63
2022-11-24T21:07:00.412Z,91.64
2022-11-24T21:11:03.849Z,91.46
2022-11-24T21:15:07.738Z,91.84
2022-11-24T21:19:14.824Z,91.85
2022-11-24T21:23:17.248Z,91.85
2022-11-24T21:27:18.964Z,91.98
2022-11-24T21:31:21.588Z,91.79
2022-11-24T21:35:23.653Z,92.26
2022-11-24T21:39:25.528Z,92.07
2022-11-24T21:43:31.047Z,92.26
2022-11-24T21:47:33.845Z,92.29
2022-11-24T21:51:35.587Z,91.87
2022-11-24T21:55:37.302Z,91.96
2022-11-24T21:59:39.173Z,92.37
2022-11-24T22:03:41.053Z,92.05
2022-11-24T22:07:45.170Z,92.19
2022-11-24T22:11:52.387Z,92.63
2022-11-24T22:16:06.247Z,92.26
2022-11-24T22:20:08.691Z,92.48
2022-11-24T22:24:10.771Z,92.46
2022-11-24T22:28:12.485Z,92.47
2022-11-24T22:32:14.339Z,92.55
2022-11-24T22:36:17.609Z,92.65
2022-11-24T22:40:19.322Z,92.89
2022-11-24T22:44:21.152Z,92.80
2022-11-24T22:48:22.820Z,93.38
2022-11-24T22:52:24.730Z,93.18
2022-11-24T22:56:28.099Z,93.21
2022-11-24T23:00:29.959Z,93.40
2022-11-24T23:04:31.777Z,93.62
2022-11-24T23:08:35.100Z,94.05
2022-11-24T23:12:36.983Z,94.39
2022-11-24T23:16:39.049Z,94.69
2022-11-24T23:20:40.771Z,95.04
2022-11-24T23:24:42.502Z,95.50
2022-11-24T23:28:44.605Z,95.87
2022-11-24T23:32:46.393Z,95.94
2022-11-24T23:36:48.859Z,96.18
2022-11-24T23:40:50.685Z,96.82
2022-11-24T23:44:52.399Z,97.19
2022-11-24T23:48:55.453Z,97.38
2022-11-24T23:52:57.128Z,97.74
2022-11-24T23:56:58.852Z,97.84
